Details From SBGO - Santo Genoveva
To SBAN - BASE AEREA
Flight Number -
Tags generated
Created
Modified
Stats Distance 29 nm / 53 km
Max Altitude 100 ft / 30 m
Waypoints 3
Social Downloads 2
Likes 0
Share VATSIM

Download

Looking for another format? Having issues loading an existing format? Contact us
Advertisement - Login to hide

Notes

Basic altitude profile: - Ascent Rate: 2500ft/min - Ascent Speed: 250kts - Cruise Altitude: 35000ft - Cruise Speed: 420kts - Descent Rate: 1500ft/min - Descent Speed: 250kts Options: - Use NATs: yes - Use PACOTS: yes - Use low airways: yes - Use high airways: yes

Route

SBGO GOI SBAN

ID Type Via Altitude Latitude Longitude Leg Dist Tot Dist Heading (true) Name
O SBGO APT - 0 ft / 0 m -16.63203˚ -49.22069˚ - 0 nm - Santo Genoveva
GOI VOR - 100 ft / 30 m -16.63243˚ -49.21536˚ 0 nm 0 nm 94° / 94° GOIANIA VOR-DME
O SBAN APT - 0 ft / 0 m -16.22915˚ -48.96427˚ 28 nm 28 nm 31° / 31° BASE AEREA

Altitude Profile

Advertisement - Login to hide

SBGO

Details ICAO SBGO (GYN)
Name Santo Genoveva
Region Brazil
Timezone America/Sao_Paulo (UTC-2.0)
Stats Elevation 2,450 ft / 747 m (AMSL)
Location -16.632032° -49.220686°
Runways 1
Magnetic Variation 20.988° W

METAR

SBGO 140400Z 14004KT 9999 FEW002 BKN017 BKN100 21/21 Q1017

Decode

TAF

TAF AMD TAF AMD SBGO 140155Z 1403/1424 05008KT 9999 BKN012 TN20/1409Z TX26/14 18Z TEMPO 1403/1407 4000 RA SCT020 FM141200 04010KT 9999 SCT020 TEMPO 1419/1423 34010KT 9000 SHRA SCT025 FEW030TCU RMK PDF

Decode

Departure Runways

ID Width Length Bearing (true) Bearing (mag) Surface Threshold Offset Overrun Length
14 148 ft / 45 m 8,208 ft / 2,502 m 120.42° 141.41° Asphalt 0 ft / 0 m 0 ft / 0 m
32 148 ft / 45 m 8,208 ft / 2,502 m 300.41° 321.40° Asphalt 980 ft / 299 m 0 ft / 0 m

SBAN

Details ICAO SBAN
Name BASE AEREA
Region Brazil
Timezone America/Sao_Paulo (UTC-2.0)
Stats Elevation 3,728 ft / 1,136 m (AMSL)
Location -16.229153° -48.964267°
Runways 2
Magnetic Variation 21.116° W

METAR

SBAN 140400Z 09006KT 5000 BR OVC003 18/18 Q1019

Decode

TAF

TAF TAF SBAN 132200Z 1400/1412 08008KT 3000 BR BKN003 TN18/1409Z TX20/1412Z TEMPO 1401/1403 2000 RA BKN002 RMK PDF

Decode

Destination Runways

ID Width Length Bearing (true) Bearing (mag) Surface Threshold Offset Overrun Length
06L 148 ft / 45 m 10,862 ft / 3,311 m 38.85° 59.97° Asphalt 0 ft / 0 m 1,151 ft / 351 m
06R 75 ft / 23 m 7,469 ft / 2,277 m 38.80° 59.92° Asphalt 0 ft / 0 m 0 ft / 0 m
24L 75 ft / 23 m 7,469 ft / 2,277 m 218.79° 239.91° Asphalt 0 ft / 0 m 0 ft / 0 m
24R 148 ft / 45 m 10,862 ft / 3,311 m 218.84° 239.96° Asphalt 0 ft / 0 m 1,142 ft / 348 m